sensor_id;sensor_type;location;lat;lon;timestamp;temperature;humidity
52643;DHT22;38531;53.296;6.614;2023-04-06T00:01:02;2.10;99.90
52643;DHT22;38531;53.296;6.614;2023-04-06T00:03:28;1.90;99.90
52643;DHT22;38531;53.296;6.614;2023-04-06T00:05:54;2.20;99.90
52643;DHT22;38531;53.296;6.614;2023-04-06T00:08:19;2.40;99.90
52643;DHT22;38531;53.296;6.614;2023-04-06T00:10:47;1.10;99.90
52643;DHT22;38531;53.296;6.614;2023-04-06T00:13:12;2.50;99.90
52643;DHT22;38531;53.296;6.614;2023-04-06T00:15:38;1.10;99.90
52643;DHT22;38531;53.296;6.614;2023-04-06T00:18:04;2.20;99.90
52643;DHT22;38531;53.296;6.614;2023-04-06T00:20:30;1.00;99.90
52643;DHT22;38531;53.296;6.614;2023-04-06T00:22:55;1.00;99.90
52643;DHT22;38531;53.296;6.614;2023-04-06T00:25:21;2.30;99.90
52643;DHT22;38531;53.296;6.614;2023-04-06T00:27:47;1.00;99.90
52643;DHT22;38531;53.296;6.614;2023-04-06T00:30:13;1.70;99.90
52643;DHT22;38531;53.296;6.614;2023-04-06T00:32:39;0.90;99.90
52643;DHT22;38531;53.296;6.614;2023-04-06T00:35:05;2.00;99.90
52643;DHT22;38531;53.296;6.614;2023-04-06T00:37:31;0.90;99.90
52643;DHT22;38531;53.296;6.614;2023-04-06T00:39:57;1.80;99.90
52643;DHT22;38531;53.296;6.614;2023-04-06T00:42:23;2.40;99.90
52643;DHT22;38531;53.296;6.614;2023-04-06T00:44:57;2.20;99.90
52643;DHT22;38531;53.296;6.614;2023-04-06T00:47:23;2.10;99.90
52643;DHT22;38531;53.296;6.614;2023-04-06T00:49:51;0.80;99.90
52643;DHT22;38531;53.296;6.614;2023-04-06T00:52:17;0.70;99.90
52643;DHT22;38531;53.296;6.614;2023-04-06T00:54:44;1.20;99.90
52643;DHT22;38531;53.296;6.614;2023-04-06T00:57:11;1.90;99.90
52643;DHT22;38531;53.296;6.614;2023-04-06T00:59:37;0.70;99.90
52643;DHT22;38531;53.296;6.614;2023-04-06T01:02:04;1.50;99.90
52643;DHT22;38531;53.296;6.614;2023-04-06T01:04:29;1.50;99.90
52643;DHT22;38531;53.296;6.614;2023-04-06T01:06:55;0.70;99.90
52643;DHT22;38531;53.296;6.614;2023-04-06T01:09:22;1.90;99.90
52643;DHT22;38531;53.296;6.614;2023-04-06T01:11:47;0.90;99.90
52643;DHT22;38531;53.296;6.614;2023-04-06T01:14:14;1.80;99.90
52643;DHT22;38531;53.296;6.614;2023-04-06T01:16:40;0.60;99.90
52643;DHT22;38531;53.296;6.614;2023-04-06T01:19:10;1.70;99.90
52643;DHT22;38531;53.296;6.614;2023-04-06T01:21:40;0.40;99.90
52643;DHT22;38531;53.296;6.614;2023-04-06T01:24:07;1.30;99.90
52643;DHT22;38531;53.296;6.614;2023-04-06T01:26:33;0.50;99.90
52643;DHT22;38531;53.296;6.614;2023-04-06T01:29:00;0.50;99.90
52643;DHT22;38531;53.296;6.614;2023-04-06T01:31:26;0.50;99.90
52643;DHT22;38531;53.296;6.614;2023-04-06T01:33:52;2.00;99.90
52643;DHT22;38531;53.296;6.614;2023-04-06T01:36:18;0.40;99.90
52643;DHT22;38531;53.296;6.614;2023-04-06T01:38:44;1.50;99.90
52643;DHT22;38531;53.296;6.614;2023-04-06T01:41:10;1.70;99.90
52643;DHT22;38531;53.296;6.614;2023-04-06T01:43:37;1.10;99.90
52643;DHT22;38531;53.296;6.614;2023-04-06T01:46:03;1.80;99.90
52643;DHT22;38531;53.296;6.614;2023-04-06T01:48:28;0.90;99.90
52643;DHT22;38531;53.296;6.614;2023-04-06T01:50:55;1.50;99.90
52643;DHT22;38531;53.296;6.614;2023-04-06T01:53:21;1.00;99.90
52643;DHT22;38531;53.296;6.614;2023-04-06T01:55:47;1.30;99.90
52643;DHT22;38531;53.296;6.614;2023-04-06T01:58:13;1.30;99.90
52643;DHT22;38531;53.296;6.614;2023-04-06T02:00:39;1.00;99.90
52643;DHT22;38531;53.296;6.614;2023-04-06T02:03:05;0.20;99.90
52643;DHT22;38531;53.296;6.614;2023-04-06T02:05:32;1.10;99.90
52643;DHT22;38531;53.296;6.614;2023-04-06T02:08:04;0.70;99.90
52643;DHT22;38531;53.296;6.614;2023-04-06T02:10:31;0.20;99.90
52643;DHT22;38531;53.296;6.614;2023-04-06T02:12:57;1.40;99.90
52643;DHT22;38531;53.296;6.614;2023-04-06T02:15:22;1.40;99.90
52643;DHT22;38531;53.296;6.614;2023-04-06T02:17:48;0.40;99.90
52643;DHT22;38531;53.296;6.614;2023-04-06T02:20:14;0.10;99.90
52643;DHT22;38531;53.296;6.614;2023-04-06T02:22:39;0.00;99.90
52643;DHT22;38531;53.296;6.614;2023-04-06T02:25:06;0.10;99.90
52643;DHT22;38531;53.296;6.614;2023-04-06T02:27:32;0.00;99.90
52643;DHT22;38531;53.296;6.614;2023-04-06T02:29:57;1.10;99.90
52643;DHT22;38531;53.296;6.614;2023-04-06T02:32:23;1.20;99.90
52643;DHT22;38531;53.296;6.614;2023-04-06T02:34:49;1.00;99.90
52643;DHT22;38531;53.296;6.614;2023-04-06T02:37:15;1.20;99.90
52643;DHT22;38531;53.296;6.614;2023-04-06T02:39:41;0.30;99.90
52643;DHT22;38531;53.296;6.614;2023-04-06T02:42:07;1.10;99.90
52643;DHT22;38531;53.296;6.614;2023-04-06T02:44:34;0.80;99.90
52643;DHT22;38531;53.296;6.614;2023-04-06T02:47:00;0.30;99.90
52643;DHT22;38531;53.296;6.614;2023-04-06T02:49:26;0.90;99.90
52643;DHT22;38531;53.296;6.614;2023-04-06T02:51:51;0.80;99.90
52643;DHT22;38531;53.296;6.614;2023-04-06T02:54:17;1.20;99.90
52643;DHT22;38531;53.296;6.614;2023-04-06T02:56:43;0.20;99.90
52643;DHT22;38531;53.296;6.614;2023-04-06T02:59:09;-0.80;99.90
52643;DHT22;38531;53.296;6.614;2023-04-06T03:01:35;0.90;99.90
52643;DHT22;38531;53.296;6.614;2023-04-06T03:04:01;1.30;99.90
52643;DHT22;38531;53.296;6.614;2023-04-06T03:06:27;-1.30;99.90
52643;DHT22;38531;53.296;6.614;2023-04-06T03:08:53;0.80;99.90
52643;DHT22;38531;53.296;6.614;2023-04-06T03:11:18;1.00;99.90
52643;DHT22;38531;53.296;6.614;2023-04-06T03:13:44;0.70;99.90
52643;DHT22;38531;53.296;6.614;2023-04-06T03:16:10;1.20;99.90
52643;DHT22;38531;53.296;6.614;2023-04-06T03:18:36;0.70;99.90
52643;DHT22;38531;53.296;6.614;2023-04-06T03:21:01;0.60;99.90
52643;DHT22;38531;53.296;6.614;2023-04-06T03:23:27;1.00;99.90
52643;DHT22;38531;53.296;6.614;2023-04-06T03:25:53;0.70;99.90
52643;DHT22;38531;53.296;6.614;2023-04-06T03:28:19;0.40;99.90
52643;DHT22;38531;53.296;6.614;2023-04-06T03:30:45;0.60;99.90
52643;DHT22;38531;53.296;6.614;2023-04-06T03:33:11;0.70;99.90
52643;DHT22;38531;53.296;6.614;2023-04-06T03:35:37;-0.40;99.90
52643;DHT22;38531;53.296;6.614;2023-04-06T03:38:03;0.60;99.90
52643;DHT22;38531;53.296;6.614;2023-04-06T03:40:30;-0.10;99.90
52643;DHT22;38531;53.296;6.614;2023-04-06T03:42:56;-0.10;99.90
52643;DHT22;38531;53.296;6.614;2023-04-06T03:45:22;0.40;99.90
52643;DHT22;38531;53.296;6.614;2023-04-06T03:47:48;-0.50;99.90
52643;DHT22;38531;53.296;6.614;2023-04-06T03:50:14;-0.30;99.90
52643;DHT22;38531;53.296;6.614;2023-04-06T03:52:39;0.30;99.90
52643;DHT22;38531;53.296;6.614;2023-04-06T03:55:06;0.90;99.90
52643;DHT22;38531;53.296;6.614;2023-04-06T03:57:32;-0.60;99.90
52643;DHT22;38531;53.296;6.614;2023-04-06T03:59:58;0.90;99.90
52643;DHT22;38531;53.296;6.614;2023-04-06T04:02:23;-1.00;99.90
52643;DHT22;38531;53.296;6.614;2023-04-06T04:04:49;-0.90;99.90
52643;DHT22;38531;53.296;6.614;2023-04-06T04:07:15;-0.30;99.90
52643;DHT22;38531;53.296;6.614;2023-04-06T04:09:40;0.60;99.90
52643;DHT22;38531;53.296;6.614;2023-04-06T04:12:06;0.00;99.90
52643;DHT22;38531;53.296;6.614;2023-04-06T04:14:32;0.60;99.90
52643;DHT22;38531;53.296;6.614;2023-04-06T04:16:58;-0.50;99.90
52643;DHT22;38531;53.296;6.614;2023-04-06T04:19:23;0.30;99.90
52643;DHT22;38531;53.296;6.614;2023-04-06T04:21:49;-0.90;99.90
52643;DHT22;38531;53.296;6.614;2023-04-06T04:24:15;0.70;99.90
52643;DHT22;38531;53.296;6.614;2023-04-06T04:26:40;-0.10;99.90
52643;DHT22;38531;53.296;6.614;2023-04-06T04:29:06;-1.70;99.90
52643;DHT22;38531;53.296;6.614;2023-04-06T04:31:32;0.20;99.90
52643;DHT22;38531;53.296;6.614;2023-04-06T04:33:59;-0.80;99.90
52643;DHT22;38531;53.296;6.614;2023-04-06T04:36:25;-0.20;99.90
52643;DHT22;38531;53.296;6.614;2023-04-06T04:38:52;-0.10;99.90
52643;DHT22;38531;53.296;6.614;2023-04-06T04:41:18;-0.80;99.90
52643;DHT22;38531;53.296;6.614;2023-04-06T04:43:44;-0.60;99.90
52643;DHT22;38531;53.296;6.614;2023-04-06T04:46:10;-0.30;99.90
52643;DHT22;38531;53.296;6.614;2023-04-06T04:48:35;-1.00;99.90
52643;DHT22;38531;53.296;6.614;2023-04-06T04:51:01;-0.90;99.90
52643;DHT22;38531;53.296;6.614;2023-04-06T04:53:27;-1.00;99.90
52643;DHT22;38531;53.296;6.614;2023-04-06T04:55:53;0.20;99.90
52643;DHT22;38531;53.296;6.614;2023-04-06T04:58:18;-0.40;99.90
52643;DHT22;38531;53.296;6.614;2023-04-06T05:00:48;0.00;99.90
52643;DHT22;38531;53.296;6.614;2023-04-06T05:03:24;0.20;99.90
52643;DHT22;38531;53.296;6.614;2023-04-06T05:05:50;-1.10;99.90
52643;DHT22;38531;53.296;6.614;2023-04-06T05:08:16;-1.10;99.90
52643;DHT22;38531;53.296;6.614;2023-04-06T05:10:42;-1.10;99.90
52643;DHT22;38531;53.296;6.614;2023-04-06T05:13:08;-0.20;99.90
52643;DHT22;38531;53.296;6.614;2023-04-06T05:15:34;-1.10;99.90
52643;DHT22;38531;53.296;6.614;2023-04-06T05:18:07;-0.50;99.90
52643;DHT22;38531;53.296;6.614;2023-04-06T05:20:34;0.10;99.90
52643;DHT22;38531;53.296;6.614;2023-04-06T05:23:00;-1.20;99.90
52643;DHT22;38531;53.296;6.614;2023-04-06T05:25:26;0.20;99.90
52643;DHT22;38531;53.296;6.614;2023-04-06T05:27:52;-0.20;99.90
52643;DHT22;38531;53.296;6.614;2023-04-06T05:30:18;-0.10;99.90
52643;DHT22;38531;53.296;6.614;2023-04-06T05:32:44;-1.00;99.90
52643;DHT22;38531;53.296;6.614;2023-04-06T05:35:10;-1.00;99.90
52643;DHT22;38531;53.296;6.614;2023-04-06T05:37:37;-0.90;99.90
52643;DHT22;38531;53.296;6.614;2023-04-06T05:40:04;-0.10;99.90
52643;DHT22;38531;53.296;6.614;2023-04-06T05:42:40;-0.90;99.90
52643;DHT22;38531;53.296;6.614;2023-04-06T05:45:08;-0.90;99.90
52643;DHT22;38531;53.296;6.614;2023-04-06T05:47:34;-0.90;99.90
52643;DHT22;38531;53.296;6.614;2023-04-06T05:50:00;-0.30;99.90
52643;DHT22;38531;53.296;6.614;2023-04-06T05:52:26;0.30;99.90
52643;DHT22;38531;53.296;6.614;2023-04-06T05:54:52;0.70;99.90
52643;DHT22;38531;53.296;6.614;2023-04-06T05:57:17;-1.40;99.90
52643;DHT22;38531;53.296;6.614;2023-04-06T05:59:44;0.00;99.90
52643;DHT22;38531;53.296;6.614;2023-04-06T06:02:09;0.70;99.90
52643;DHT22;38531;53.296;6.614;2023-04-06T06:04:35;0.70;99.90
52643;DHT22;38531;53.296;6.614;2023-04-06T06:07:01;-0.50;99.90
52643;DHT22;38531;53.296;6.614;2023-04-06T06:09:27;-0.20;99.90
52643;DHT22;38531;53.296;6.614;2023-04-06T06:11:53;0.70;99.90
52643;DHT22;38531;53.296;6.614;2023-04-06T06:14:19;0.70;99.90
52643;DHT22;38531;53.296;6.614;2023-04-06T06:16:45;-0.10;99.90
52643;DHT22;38531;53.296;6.614;2023-04-06T06:19:11;-0.10;99.90
52643;DHT22;38531;53.296;6.614;2023-04-06T06:21:36;0.80;99.90
52643;DHT22;38531;53.296;6.614;2023-04-06T06:24:02;1.00;99.90
52643;DHT22;38531;53.296;6.614;2023-04-06T06:26:28;0.40;99.90
52643;DHT22;38531;53.296;6.614;2023-04-06T06:28:54;0.30;99.90
52643;DHT22;38531;53.296;6.614;2023-04-06T06:31:20;1.10;99.90
52643;DHT22;38531;53.296;6.614;2023-04-06T06:33:48;1.40;99.90
52643;DHT22;38531;53.296;6.614;2023-04-06T06:36:17;1.20;99.90
52643;DHT22;38531;53.296;6.614;2023-04-06T06:38:43;2.00;99.90
52643;DHT22;38531;53.296;6.614;2023-04-06T06:41:08;2.10;99.90
52643;DHT22;38531;53.296;6.614;2023-04-06T06:43:34;1.10;99.90
52643;DHT22;38531;53.296;6.614;2023-04-06T06:46:00;1.20;99.90
52643;DHT22;38531;53.296;6.614;2023-04-06T06:48:26;1.80;99.90
52643;DHT22;38531;53.296;6.614;2023-04-06T06:50:51;2.50;99.90
52643;DHT22;38531;53.296;6.614;2023-04-06T06:53:17;2.50;99.90
52643;DHT22;38531;53.296;6.614;2023-04-06T06:55:43;1.80;99.90
52643;DHT22;38531;53.296;6.614;2023-04-06T06:58:11;2.60;99.90
52643;DHT22;38531;53.296;6.614;2023-04-06T07:00:37;2.00;99.90
52643;DHT22;38531;53.296;6.614;2023-04-06T07:03:03;2.10;99.90
52643;DHT22;38531;53.296;6.614;2023-04-06T07:05:29;2.20;99.90
52643;DHT22;38531;53.296;6.614;2023-04-06T07:07:55;2.30;99.90
52643;DHT22;38531;53.296;6.614;2023-04-06T07:10:21;3.00;99.90
52643;DHT22;38531;53.296;6.614;2023-04-06T07:12:47;2.60;99.90
52643;DHT22;38531;53.296;6.614;2023-04-06T07:15:13;2.80;99.90
52643;DHT22;38531;53.296;6.614;2023-04-06T07:17:38;2.90;99.90
52643;DHT22;38531;53.296;6.614;2023-04-06T07:20:06;3.10;99.90
52643;DHT22;38531;53.296;6.614;2023-04-06T07:22:32;3.20;99.90
52643;DHT22;38531;53.296;6.614;2023-04-06T07:24:58;3.40;99.90
52643;DHT22;38531;53.296;6.614;2023-04-06T07:27:24;3.60;99.90
52643;DHT22;38531;53.296;6.614;2023-04-06T07:29:49;3.70;99.90
52643;DHT22;38531;53.296;6.614;2023-04-06T07:32:15;3.90;99.90
52643;DHT22;38531;53.296;6.614;2023-04-06T07:34:41;4.00;99.90
52643;DHT22;38531;53.296;6.614;2023-04-06T07:37:07;4.20;99.90
52643;DHT22;38531;53.296;6.614;2023-04-06T07:39:33;4.30;99.90
52643;DHT22;38531;53.296;6.614;2023-04-06T07:41:59;4.50;99.90
52643;DHT22;38531;53.296;6.614;2023-04-06T07:44:24;4.70;99.90
52643;DHT22;38531;53.296;6.614;2023-04-06T07:46:50;4.80;99.90
52643;DHT22;38531;53.296;6.614;2023-04-06T07:49:16;5.00;99.90
52643;DHT22;38531;53.296;6.614;2023-04-06T07:51:42;5.20;99.90
52643;DHT22;38531;53.296;6.614;2023-04-06T07:54:07;5.40;99.90
52643;DHT22;38531;53.296;6.614;2023-04-06T07:56:33;5.50;99.90
52643;DHT22;38531;53.296;6.614;2023-04-06T07:58:59;5.70;99.90
52643;DHT22;38531;53.296;6.614;2023-04-06T08:01:25;5.80;99.90
52643;DHT22;38531;53.296;6.614;2023-04-06T08:03:50;6.00;99.90
52643;DHT22;38531;53.296;6.614;2023-04-06T08:06:16;6.20;99.90
52643;DHT22;38531;53.296;6.614;2023-04-06T08:08:42;6.30;99.90
52643;DHT22;38531;53.296;6.614;2023-04-06T08:11:09;6.50;99.90
52643;DHT22;38531;53.296;6.614;2023-04-06T08:13:34;6.70;99.90
52643;DHT22;38531;53.296;6.614;2023-04-06T08:16:01;6.80;99.90
52643;DHT22;38531;53.296;6.614;2023-04-06T08:18:26;7.00;99.90
52643;DHT22;38531;53.296;6.614;2023-04-06T08:20:52;7.20;99.90
52643;DHT22;38531;53.296;6.614;2023-04-06T08:23:19;7.40;99.90
52643;DHT22;38531;53.296;6.614;2023-04-06T08:25:45;7.50;99.90
52643;DHT22;38531;53.296;6.614;2023-04-06T08:28:11;7.70;99.90
52643;DHT22;38531;53.296;6.614;2023-04-06T08:30:42;7.90;99.90
52643;DHT22;38531;53.296;6.614;2023-04-06T08:33:09;8.10;99.90
52643;DHT22;38531;53.296;6.614;2023-04-06T08:35:35;8.30;99.90
52643;DHT22;38531;53.296;6.614;2023-04-06T08:38:00;8.40;99.90
52643;DHT22;38531;53.296;6.614;2023-04-06T08:40:27;8.60;99.90
52643;DHT22;38531;53.296;6.614;2023-04-06T08:42:55;8.70;99.90
52643;DHT22;38531;53.296;6.614;2023-04-06T08:45:22;8.90;99.90
52643;DHT22;38531;53.296;6.614;2023-04-06T08:47:51;9.10;99.90
52643;DHT22;38531;53.296;6.614;2023-04-06T08:50:18;9.30;99.90
52643;DHT22;38531;53.296;6.614;2023-04-06T08:52:47;9.40;99.90
52643;DHT22;38531;53.296;6.614;2023-04-06T08:55:13;9.40;99.90
52643;DHT22;38531;53.296;6.614;2023-04-06T08:57:39;9.60;99.90
52643;DHT22;38531;53.296;6.614;2023-04-06T09:00:07;9.70;99.90
52643;DHT22;38531;53.296;6.614;2023-04-06T09:02:39;9.90;99.90
52643;DHT22;38531;53.296;6.614;2023-04-06T09:05:07;10.10;99.90
52643;DHT22;38531;53.296;6.614;2023-04-06T09:07:35;10.30;99.90
52643;DHT22;38531;53.296;6.614;2023-04-06T09:10:01;10.50;99.90
52643;DHT22;38531;53.296;6.614;2023-04-06T09:12:28;10.70;99.90
52643;DHT22;38531;53.296;6.614;2023-04-06T09:14:56;10.90;99.90
52643;DHT22;38531;53.296;6.614;2023-04-06T09:17:23;11.10;99.90
52643;DHT22;38531;53.296;6.614;2023-04-06T09:19:49;11.30;99.90
52643;DHT22;38531;53.296;6.614;2023-04-06T09:22:15;11.40;99.90
52643;DHT22;38531;53.296;6.614;2023-04-06T09:24:52;11.60;99.90
52643;DHT22;38531;53.296;6.614;2023-04-06T09:27:34;11.80;99.90
52643;DHT22;38531;53.296;6.614;2023-04-06T09:30:18;12.10;99.90
52643;DHT22;38531;53.296;6.614;2023-04-06T09:35:11;12.40;96.30
52643;DHT22;38531;53.296;6.614;2023-04-06T09:37:36;12.50;98.20
52643;DHT22;38531;53.296;6.614;2023-04-06T09:40:06;12.60;96.90
52643;DHT22;38531;53.296;6.614;2023-04-06T09:42:33;12.70;97.30
52643;DHT22;38531;53.296;6.614;2023-04-06T09:45:00;12.90;97.60
52643;DHT22;38531;53.296;6.614;2023-04-06T09:47:26;13.00;96.30
52643;DHT22;38531;53.296;6.614;2023-04-06T09:50:02;12.90;94.30
52643;DHT22;38531;53.296;6.614;2023-04-06T09:52:33;13.00;96.10
52643;DHT22;38531;53.296;6.614;2023-04-06T09:55:03;13.00;97.10
52643;DHT22;38531;53.296;6.614;2023-04-06T09:57:37;13.10;94.80
52643;DHT22;38531;53.296;6.614;2023-04-06T10:00:08;13.10;94.60
52643;DHT22;38531;53.296;6.614;2023-04-06T10:05:48;13.00;93.80
52643;DHT22;38531;53.296;6.614;2023-04-06T10:08:16;13.00;94.60
52643;DHT22;38531;53.296;6.614;2023-04-06T10:10:44;13.00;94.10
52643;DHT22;38531;53.296;6.614;2023-04-06T10:13:11;13.00;93.40
52643;DHT22;38531;53.296;6.614;2023-04-06T10:15:38;13.00;92.80
52643;DHT22;38531;53.296;6.614;2023-04-06T10:18:05;13.00;93.70
52643;DHT22;38531;53.296;6.614;2023-04-06T10:23:08;13.10;92.50
52643;DHT22;38531;53.296;6.614;2023-04-06T10:25:35;13.00;93.20
52643;DHT22;38531;53.296;6.614;2023-04-06T10:28:05;13.00;94.00
52643;DHT22;38531;53.296;6.614;2023-04-06T10:30:33;13.10;95.00
52643;DHT22;38531;53.296;6.614;2023-04-06T10:32:59;13.10;95.30
52643;DHT22;38531;53.296;6.614;2023-04-06T10:35:37;13.20;93.90
52643;DHT22;38531;53.296;6.614;2023-04-06T10:38:04;13.30;94.10
52643;DHT22;38531;53.296;6.614;2023-04-06T10:40:31;13.30;94.90
52643;DHT22;38531;53.296;6.614;2023-04-06T10:43:13;13.40;94.10
52643;DHT22;38531;53.296;6.614;2023-04-06T10:45:40;13.40;93.40
52643;DHT22;38531;53.296;6.614;2023-04-06T10:48:13;13.40;93.70
52643;DHT22;38531;53.296;6.614;2023-04-06T10:50:42;13.50;94.60
52643;DHT22;38531;53.296;6.614;2023-04-06T10:53:08;13.50;93.50
52643;DHT22;38531;53.296;6.614;2023-04-06T10:55:39;13.60;94.30
52643;DHT22;38531;53.296;6.614;2023-04-06T10:58:07;13.70;93.20
52643;DHT22;38531;53.296;6.614;2023-04-06T11:00:34;13.70;94.50
52643;DHT22;38531;53.296;6.614;2023-04-06T11:03:00;13.70;93.50
52643;DHT22;38531;53.296;6.614;2023-04-06T11:05:27;13.70;94.40
52643;DHT22;38531;53.296;6.614;2023-04-06T11:07:53;13.60;93.10
52643;DHT22;38531;53.296;6.614;2023-04-06T11:10:22;13.70;93.40
52643;DHT22;38531;53.296;6.614;2023-04-06T11:12:57;13.70;93.90
52643;DHT22;38531;53.296;6.614;2023-04-06T11:15:23;13.80;94.10
52643;DHT22;38531;53.296;6.614;2023-04-06T11:17:49;13.80;93.00
52643;DHT22;38531;53.296;6.614;2023-04-06T11:20:15;13.80;92.80
52643;DHT22;38531;53.296;6.614;2023-04-06T11:22:51;13.90;93.90
52643;DHT22;38531;53.296;6.614;2023-04-06T11:25:17;14.10;93.20
52643;DHT22;38531;53.296;6.614;2023-04-06T11:27:43;14.20;93.20
52643;DHT22;38531;53.296;6.614;2023-04-06T11:30:10;14.30;93.80
52643;DHT22;38531;53.296;6.614;2023-04-06T11:32:40;14.40;93.20
52643;DHT22;38531;53.296;6.614;2023-04-06T11:35:10;14.50;92.60
52643;DHT22;38531;53.296;6.614;2023-04-06T11:37:36;14.70;92.60
52643;DHT22;38531;53.296;6.614;2023-04-06T11:40:02;14.70;90.80
52643;DHT22;38531;53.296;6.614;2023-04-06T11:42:29;14.80;92.80
52643;DHT22;38531;53.296;6.614;2023-04-06T11:44:56;14.90;92.60
52643;DHT22;38531;53.296;6.614;2023-04-06T11:47:36;14.80;92.00
52643;DHT22;38531;53.296;6.614;2023-04-06T11:50:21;14.80;91.70
52643;DHT22;38531;53.296;6.614;2023-04-06T11:52:58;14.80;90.40
52643;DHT22;38531;53.296;6.614;2023-04-06T11:55:25;14.90;91.40
52643;DHT22;38531;53.296;6.614;2023-04-06T11:57:50;15.00;92.20
52643;DHT22;38531;53.296;6.614;2023-04-06T12:00:17;15.00;91.20
52643;DHT22;38531;53.296;6.614;2023-04-06T12:02:47;15.10;90.20
52643;DHT22;38531;53.296;6.614;2023-04-06T12:05:13;15.20;90.00
52643;DHT22;38531;53.296;6.614;2023-04-06T12:07:39;15.20;91.10
52643;DHT22;38531;53.296;6.614;2023-04-06T12:10:05;15.20;89.70
52643;DHT22;38531;53.296;6.614;2023-04-06T12:12:31;15.20;90.20
52643;DHT22;38531;53.296;6.614;2023-04-06T12:14:57;15.10;91.10
52643;DHT22;38531;53.296;6.614;2023-04-06T12:17:23;15.10;90.20
52643;DHT22;38531;53.296;6.614;2023-04-06T12:19:50;15.10;90.90
52643;DHT22;38531;53.296;6.614;2023-04-06T12:22:17;15.00;91.20
52643;DHT22;38531;53.296;6.614;2023-04-06T12:24:43;15.00;89.00
52643;DHT22;38531;53.296;6.614;2023-04-06T12:27:08;14.90;90.00
52643;DHT22;38531;53.296;6.614;2023-04-06T12:29:39;14.90;90.20
52643;DHT22;38531;53.296;6.614;2023-04-06T12:32:05;14.80;90.30
52643;DHT22;38531;53.296;6.614;2023-04-06T12:34:31;14.80;89.40
52643;DHT22;38531;53.296;6.614;2023-04-06T12:36:57;14.80;89.90
52643;DHT22;38531;53.296;6.614;2023-04-06T12:39:23;14.90;90.70
52643;DHT22;38531;53.296;6.614;2023-04-06T12:41:49;14.90;91.10
52643;DHT22;38531;53.296;6.614;2023-04-06T12:44:15;14.90;90.60
52643;DHT22;38531;53.296;6.614;2023-04-06T12:46:41;15.00;91.30
52643;DHT22;38531;53.296;6.614;2023-04-06T12:49:08;14.70;91.00
52643;DHT22;38531;53.296;6.614;2023-04-06T12:51:34;15.10;90.40
52643;DHT22;38531;53.296;6.614;2023-04-06T12:53:59;15.10;90.50
52643;DHT22;38531;53.296;6.614;2023-04-06T12:56:26;15.10;91.10
52643;DHT22;38531;53.296;6.614;2023-04-06T12:58:53;15.10;91.00
52643;DHT22;38531;53.296;6.614;2023-04-06T13:01:19;15.30;89.80
52643;DHT22;38531;53.296;6.614;2023-04-06T13:03:45;14.90;91.10
52643;DHT22;38531;53.296;6.614;2023-04-06T13:06:11;14.90;91.50
52643;DHT22;38531;53.296;6.614;2023-04-06T13:08:38;14.80;90.30
52643;DHT22;38531;53.296;6.614;2023-04-06T13:11:04;14.70;90.60
52643;DHT22;38531;53.296;6.614;2023-04-06T13:13:30;14.70;91.40
52643;DHT22;38531;53.296;6.614;2023-04-06T13:16:02;14.70;91.20
52643;DHT22;38531;53.296;6.614;2023-04-06T13:18:29;14.60;91.70
52643;DHT22;38531;53.296;6.614;2023-04-06T13:20:56;14.60;90.80
52643;DHT22;38531;53.296;6.614;2023-04-06T13:23:23;14.60;90.70
52643;DHT22;38531;53.296;6.614;2023-04-06T13:26:03;14.50;87.20
52643;DHT22;38531;53.296;6.614;2023-04-06T13:28:29;14.50;90.50
52643;DHT22;38531;53.296;6.614;2023-04-06T13:30:57;14.50;90.20
52643;DHT22;38531;53.296;6.614;2023-04-06T13:33:23;14.50;91.10
52643;DHT22;38531;53.296;6.614;2023-04-06T13:35:49;14.40;90.90
52643;DHT22;38531;53.296;6.614;2023-04-06T13:38:15;14.40;89.70
52643;DHT22;38531;53.296;6.614;2023-04-06T13:40:42;14.30;89.70
52643;DHT22;38531;53.296;6.614;2023-04-06T13:43:08;14.30;90.60
52643;DHT22;38531;53.296;6.614;2023-04-06T13:45:33;14.30;89.90
52643;DHT22;38531;53.296;6.614;2023-04-06T13:47:59;14.20;91.00
52643;DHT22;38531;53.296;6.614;2023-04-06T13:50:27;14.20;90.80
52643;DHT22;38531;53.296;6.614;2023-04-06T13:52:53;14.20;90.50
52643;DHT22;38531;53.296;6.614;2023-04-06T13:55:19;14.10;90.40
52643;DHT22;38531;53.296;6.614;2023-04-06T13:57:45;14.10;91.40
52643;DHT22;38531;53.296;6.614;2023-04-06T14:00:11;14.10;91.60
52643;DHT22;38531;53.296;6.614;2023-04-06T14:02:39;14.20;91.50
52643;DHT22;38531;53.296;6.614;2023-04-06T14:05:05;14.10;90.60
52643;DHT22;38531;53.296;6.614;2023-04-06T14:07:31;14.20;91.20
52643;DHT22;38531;53.296;6.614;2023-04-06T14:09:57;14.20;92.50
52643;DHT22;38531;53.296;6.614;2023-04-06T14:12:23;14.20;92.10
52643;DHT22;38531;53.296;6.614;2023-04-06T14:14:48;14.20;91.80
52643;DHT22;38531;53.296;6.614;2023-04-06T14:17:15;14.20;90.00
52643;DHT22;38531;53.296;6.614;2023-04-06T14:19:41;14.20;90.80
52643;DHT22;38531;53.296;6.614;2023-04-06T14:22:06;14.20;91.00
52643;DHT22;38531;53.296;6.614;2023-04-06T14:24:33;14.10;90.90
52643;DHT22;38531;53.296;6.614;2023-04-06T14:27:00;14.10;92.00
52643;DHT22;38531;53.296;6.614;2023-04-06T14:29:26;14.10;90.80
52643;DHT22;38531;53.296;6.614;2023-04-06T14:31:52;14.10;91.20
52643;DHT22;38531;53.296;6.614;2023-04-06T14:34:17;14.10;90.90
52643;DHT22;38531;53.296;6.614;2023-04-06T14:36:43;14.10;92.20
52643;DHT22;38531;53.296;6.614;2023-04-06T14:39:09;14.00;92.00
52643;DHT22;38531;53.296;6.614;2023-04-06T14:41:35;13.90;90.20
52643;DHT22;38531;53.296;6.614;2023-04-06T14:44:01;13.90;90.30
52643;DHT22;38531;53.296;6.614;2023-04-06T14:46:27;13.80;91.20
52643;DHT22;38531;53.296;6.614;2023-04-06T14:48:56;13.80;92.20
52643;DHT22;38531;53.296;6.614;2023-04-06T14:51:26;13.70;90.90
52643;DHT22;38531;53.296;6.614;2023-04-06T14:53:55;13.60;92.30
52643;DHT22;38531;53.296;6.614;2023-04-06T14:56:24;13.60;92.10
52643;DHT22;38531;53.296;6.614;2023-04-06T14:58:50;13.60;92.70
52643;DHT22;38531;53.296;6.614;2023-04-06T15:01:20;13.50;92.30
52643;DHT22;38531;53.296;6.614;2023-04-06T15:03:46;13.40;92.60
52643;DHT22;38531;53.296;6.614;2023-04-06T15:06:13;13.40;92.90
52643;DHT22;38531;53.296;6.614;2023-04-06T15:08:41;13.30;93.20
52643;DHT22;38531;53.296;6.614;2023-04-06T15:11:07;13.30;93.30
52643;DHT22;38531;53.296;6.614;2023-04-06T15:13:32;13.20;94.30
52643;DHT22;38531;53.296;6.614;2023-04-06T15:15:58;13.20;94.10
52643;DHT22;38531;53.296;6.614;2023-04-06T15:18:24;13.10;94.20
52643;DHT22;38531;53.296;6.614;2023-04-06T15:20:49;13.00;94.10
52643;DHT22;38531;53.296;6.614;2023-04-06T15:23:16;12.90;94.20
52643;DHT22;38531;53.296;6.614;2023-04-06T15:25:41;13.70;95.00
52643;DHT22;38531;53.296;6.614;2023-04-06T15:28:07;12.70;95.10
52643;DHT22;38531;53.296;6.614;2023-04-06T15:30:34;12.60;94.70
52643;DHT22;38531;53.296;6.614;2023-04-06T15:33:00;12.40;95.40
52643;DHT22;38531;53.296;6.614;2023-04-06T15:35:27;12.30;95.40
52643;DHT22;38531;53.296;6.614;2023-04-06T15:37:54;12.20;95.90
52643;DHT22;38531;53.296;6.614;2023-04-06T15:40:21;12.10;95.80
52643;DHT22;38531;53.296;6.614;2023-04-06T15:42:47;12.10;96.10